sensor_id;sensor_type;location;lat;lon;timestamp;temperature;humidity
26541;DHT22;14206;50.202;10.948;2022-07-23T00:00:13;22.90;71.00
26541;DHT22;14206;50.202;10.948;2022-07-23T00:02:40;22.90;70.90
26541;DHT22;14206;50.202;10.948;2022-07-23T00:05:07;22.90;70.90
26541;DHT22;14206;50.202;10.948;2022-07-23T00:07:34;22.90;71.00
26541;DHT22;14206;50.202;10.948;2022-07-23T00:10:01;22.90;71.00
26541;DHT22;14206;50.202;10.948;2022-07-23T00:12:28;22.90;70.90
26541;DHT22;14206;50.202;10.948;2022-07-23T00:14:55;22.80;71.00
26541;DHT22;14206;50.202;10.948;2022-07-23T00:17:22;22.90;71.10
26541;DHT22;14206;50.202;10.948;2022-07-23T00:19:54;22.90;71.10
26541;DHT22;14206;50.202;10.948;2022-07-23T00:22:24;22.90;71.10
26541;DHT22;14206;50.202;10.948;2022-07-23T00:24:51;22.80;71.30
26541;DHT22;14206;50.202;10.948;2022-07-23T00:27:38;22.80;71.30
26541;DHT22;14206;50.202;10.948;2022-07-23T00:30:04;22.80;71.40
26541;DHT22;14206;50.202;10.948;2022-07-23T00:32:31;22.80;71.40
26541;DHT22;14206;50.202;10.948;2022-07-23T00:35:19;22.80;71.50
26541;DHT22;14206;50.202;10.948;2022-07-23T00:37:46;22.70;71.70
26541;DHT22;14206;50.202;10.948;2022-07-23T00:40:13;22.70;71.90
26541;DHT22;14206;50.202;10.948;2022-07-23T00:42:41;22.70;71.90
26541;DHT22;14206;50.202;10.948;2022-07-23T00:45:08;22.70;72.10
26541;DHT22;14206;50.202;10.948;2022-07-23T00:47:35;22.70;72.10
26541;DHT22;14206;50.202;10.948;2022-07-23T00:50:03;22.70;71.90
26541;DHT22;14206;50.202;10.948;2022-07-23T00:52:31;22.70;71.90
26541;DHT22;14206;50.202;10.948;2022-07-23T00:54:58;22.70;71.80
26541;DHT22;14206;50.202;10.948;2022-07-23T00:57:25;22.70;72.00
26541;DHT22;14206;50.202;10.948;2022-07-23T00:59:54;22.70;72.00
26541;DHT22;14206;50.202;10.948;2022-07-23T01:02:21;22.70;72.10
26541;DHT22;14206;50.202;10.948;2022-07-23T01:04:48;22.60;71.80
26541;DHT22;14206;50.202;10.948;2022-07-23T01:07:15;22.70;72.10
26541;DHT22;14206;50.202;10.948;2022-07-23T01:09:42;22.70;71.90
26541;DHT22;14206;50.202;10.948;2022-07-23T01:12:09;22.60;72.60
26541;DHT22;14206;50.202;10.948;2022-07-23T01:14:36;22.60;72.70
26541;DHT22;14206;50.202;10.948;2022-07-23T01:17:04;22.50;72.60
26541;DHT22;14206;50.202;10.948;2022-07-23T01:19:31;22.50;72.80
26541;DHT22;14206;50.202;10.948;2022-07-23T01:21:58;22.40;72.90
26541;DHT22;14206;50.202;10.948;2022-07-23T01:24:28;22.30;73.10
26541;DHT22;14206;50.202;10.948;2022-07-23T01:26:59;22.30;73.50
26541;DHT22;14206;50.202;10.948;2022-07-23T01:29:26;22.20;73.70
26541;DHT22;14206;50.202;10.948;2022-07-23T01:31:54;22.20;74.00
26541;DHT22;14206;50.202;10.948;2022-07-23T01:34:21;22.10;74.10
26541;DHT22;14206;50.202;10.948;2022-07-23T01:36:48;22.00;74.50
26541;DHT22;14206;50.202;10.948;2022-07-23T01:39:16;22.00;74.60
26541;DHT22;14206;50.202;10.948;2022-07-23T01:41:43;21.90;74.70
26541;DHT22;14206;50.202;10.948;2022-07-23T01:44:15;21.90;74.70
26541;DHT22;14206;50.202;10.948;2022-07-23T01:46:43;21.90;74.70
26541;DHT22;14206;50.202;10.948;2022-07-23T01:49:10;21.90;74.80
26541;DHT22;14206;50.202;10.948;2022-07-23T01:52:00;21.90;75.00
26541;DHT22;14206;50.202;10.948;2022-07-23T01:54:32;21.90;75.00
26541;DHT22;14206;50.202;10.948;2022-07-23T01:57:01;21.80;75.20
26541;DHT22;14206;50.202;10.948;2022-07-23T01:59:28;21.80;75.40
26541;DHT22;14206;50.202;10.948;2022-07-23T02:01:55;21.80;75.30
26541;DHT22;14206;50.202;10.948;2022-07-23T02:04:24;21.80;75.30
26541;DHT22;14206;50.202;10.948;2022-07-23T02:06:52;21.80;75.40
26541;DHT22;14206;50.202;10.948;2022-07-23T02:09:19;21.80;75.30
26541;DHT22;14206;50.202;10.948;2022-07-23T02:11:46;21.80;75.40
26541;DHT22;14206;50.202;10.948;2022-07-23T02:14:13;21.80;75.30
26541;DHT22;14206;50.202;10.948;2022-07-23T02:16:40;21.80;75.40
26541;DHT22;14206;50.202;10.948;2022-07-23T02:19:07;21.90;75.30
26541;DHT22;14206;50.202;10.948;2022-07-23T02:21:36;21.90;75.20
26541;DHT22;14206;50.202;10.948;2022-07-23T02:24:03;21.90;75.20
26541;DHT22;14206;50.202;10.948;2022-07-23T02:26:30;21.90;75.30
26541;DHT22;14206;50.202;10.948;2022-07-23T02:29:04;21.80;75.20
26541;DHT22;14206;50.202;10.948;2022-07-23T02:31:31;21.80;75.40
26541;DHT22;14206;50.202;10.948;2022-07-23T02:33:58;21.80;75.40
26541;DHT22;14206;50.202;10.948;2022-07-23T02:36:26;21.80;75.50
26541;DHT22;14206;50.202;10.948;2022-07-23T02:38:53;21.80;75.60
26541;DHT22;14206;50.202;10.948;2022-07-23T02:41:20;21.70;75.70
26541;DHT22;14206;50.202;10.948;2022-07-23T02:43:47;21.70;75.80
26541;DHT22;14206;50.202;10.948;2022-07-23T02:46:14;21.60;75.90
26541;DHT22;14206;50.202;10.948;2022-07-23T02:48:42;21.60;76.10
26541;DHT22;14206;50.202;10.948;2022-07-23T02:51:09;21.50;76.00
26541;DHT22;14206;50.202;10.948;2022-07-23T02:53:46;21.50;76.20
26541;DHT22;14206;50.202;10.948;2022-07-23T02:56:13;21.40;76.70
26541;DHT22;14206;50.202;10.948;2022-07-23T02:58:41;21.30;76.90
26541;DHT22;14206;50.202;10.948;2022-07-23T03:01:08;21.30;77.00
26541;DHT22;14206;50.202;10.948;2022-07-23T03:03:35;21.30;77.00
26541;DHT22;14206;50.202;10.948;2022-07-23T03:06:01;21.30;77.10
26541;DHT22;14206;50.202;10.948;2022-07-23T03:08:28;21.30;77.20
26541;DHT22;14206;50.202;10.948;2022-07-23T03:10:55;21.30;77.20
26541;DHT22;14206;50.202;10.948;2022-07-23T03:13:22;21.30;77.10
26541;DHT22;14206;50.202;10.948;2022-07-23T03:15:51;21.30;77.40
26541;DHT22;14206;50.202;10.948;2022-07-23T03:18:18;21.30;77.20
26541;DHT22;14206;50.202;10.948;2022-07-23T03:20:45;21.30;77.00
26541;DHT22;14206;50.202;10.948;2022-07-23T03:23:11;21.30;77.20
26541;DHT22;14206;50.202;10.948;2022-07-23T03:25:38;21.40;77.20
26541;DHT22;14206;50.202;10.948;2022-07-23T03:28:05;21.40;77.20
26541;DHT22;14206;50.202;10.948;2022-07-23T03:30:32;21.40;77.40
26541;DHT22;14206;50.202;10.948;2022-07-23T03:33:00;21.50;77.20
26541;DHT22;14206;50.202;10.948;2022-07-23T03:35:27;21.40;77.10
26541;DHT22;14206;50.202;10.948;2022-07-23T03:38:10;21.40;77.50
26541;DHT22;14206;50.202;10.948;2022-07-23T03:40:37;21.50;77.50
26541;DHT22;14206;50.202;10.948;2022-07-23T03:43:04;21.50;77.60
26541;DHT22;14206;50.202;10.948;2022-07-23T03:45:31;21.40;77.60
26541;DHT22;14206;50.202;10.948;2022-07-23T03:47:59;21.40;77.40
26541;DHT22;14206;50.202;10.948;2022-07-23T03:50:28;21.30;77.60
26541;DHT22;14206;50.202;10.948;2022-07-23T03:52:55;21.20;77.80
26541;DHT22;14206;50.202;10.948;2022-07-23T03:55:22;21.20;78.10
26541;DHT22;14206;50.202;10.948;2022-07-23T03:57:49;21.10;78.10
26541;DHT22;14206;50.202;10.948;2022-07-23T04:00:16;21.10;78.30
26541;DHT22;14206;50.202;10.948;2022-07-23T04:02:44;21.00;78.40
26541;DHT22;14206;50.202;10.948;2022-07-23T04:05:12;21.00;78.40
26541;DHT22;14206;50.202;10.948;2022-07-23T04:07:41;21.00;78.70
26541;DHT22;14206;50.202;10.948;2022-07-23T04:10:08;20.90;78.60
26541;DHT22;14206;50.202;10.948;2022-07-23T04:12:34;20.90;78.80
26541;DHT22;14206;50.202;10.948;2022-07-23T04:15:03;20.90;78.90
26541;DHT22;14206;50.202;10.948;2022-07-23T04:17:31;20.90;79.00
26541;DHT22;14206;50.202;10.948;2022-07-23T04:19:58;20.90;79.10
26541;DHT22;14206;50.202;10.948;2022-07-23T04:22:30;20.90;79.30
26541;DHT22;14206;50.202;10.948;2022-07-23T04:24:58;20.90;79.30
26541;DHT22;14206;50.202;10.948;2022-07-23T04:27:24;21.00;79.00
26541;DHT22;14206;50.202;10.948;2022-07-23T04:29:51;21.10;78.70
26541;DHT22;14206;50.202;10.948;2022-07-23T04:32:18;21.20;78.20
26541;DHT22;14206;50.202;10.948;2022-07-23T04:34:46;21.30;77.90
26541;DHT22;14206;50.202;10.948;2022-07-23T04:37:13;21.40;77.90
26541;DHT22;14206;50.202;10.948;2022-07-23T04:39:40;21.50;78.00
26541;DHT22;14206;50.202;10.948;2022-07-23T04:42:07;21.60;77.70
26541;DHT22;14206;50.202;10.948;2022-07-23T04:44:34;21.70;77.80
26541;DHT22;14206;50.202;10.948;2022-07-23T04:47:03;21.80;77.20
26541;DHT22;14206;50.202;10.948;2022-07-23T04:49:29;21.90;76.80
26541;DHT22;14206;50.202;10.948;2022-07-23T04:51:56;22.00;76.10
26541;DHT22;14206;50.202;10.948;2022-07-23T04:54:23;22.10;76.60
26541;DHT22;14206;50.202;10.948;2022-07-23T04:56:50;22.20;76.20
26541;DHT22;14206;50.202;10.948;2022-07-23T04:59:16;22.30;75.70
26541;DHT22;14206;50.202;10.948;2022-07-23T05:01:45;22.50;76.20
26541;DHT22;14206;50.202;10.948;2022-07-23T05:04:12;22.60;74.70
26541;DHT22;14206;50.202;10.948;2022-07-23T05:06:41;22.80;74.50
26541;DHT22;14206;50.202;10.948;2022-07-23T05:09:08;22.90;74.00
26541;DHT22;14206;50.202;10.948;2022-07-23T05:11:35;23.00;74.40
26541;DHT22;14206;50.202;10.948;2022-07-23T05:14:01;23.20;73.60
26541;DHT22;14206;50.202;10.948;2022-07-23T05:16:28;23.20;73.50
26541;DHT22;14206;50.202;10.948;2022-07-23T05:19:01;23.30;73.20
26541;DHT22;14206;50.202;10.948;2022-07-23T05:21:30;23.50;72.50
26541;DHT22;14206;50.202;10.948;2022-07-23T05:23:58;23.60;72.50
26541;DHT22;14206;50.202;10.948;2022-07-23T05:26:25;23.60;72.00
26541;DHT22;14206;50.202;10.948;2022-07-23T05:28:52;23.60;71.60
26541;DHT22;14206;50.202;10.948;2022-07-23T05:31:19;23.60;71.50
26541;DHT22;14206;50.202;10.948;2022-07-23T05:33:46;23.50;70.70
26541;DHT22;14206;50.202;10.948;2022-07-23T05:36:13;23.50;71.00
26541;DHT22;14206;50.202;10.948;2022-07-23T05:38:50;23.50;71.00
26541;DHT22;14206;50.202;10.948;2022-07-23T05:41:17;23.50;71.20
26541;DHT22;14206;50.202;10.948;2022-07-23T05:43:43;23.50;70.90
26541;DHT22;14206;50.202;10.948;2022-07-23T05:46:11;23.50;70.80
26541;DHT22;14206;50.202;10.948;2022-07-23T05:48:41;23.60;70.80
26541;DHT22;14206;50.202;10.948;2022-07-23T05:51:22;23.50;70.70
26541;DHT22;14206;50.202;10.948;2022-07-23T05:53:50;23.40;70.80
26541;DHT22;14206;50.202;10.948;2022-07-23T05:56:19;23.30;71.10
26541;DHT22;14206;50.202;10.948;2022-07-23T05:58:46;23.10;71.70
26541;DHT22;14206;50.202;10.948;2022-07-23T06:01:15;23.00;72.20
26541;DHT22;14206;50.202;10.948;2022-07-23T06:03:49;22.90;72.60
26541;DHT22;14206;50.202;10.948;2022-07-23T06:06:16;22.90;73.00
26541;DHT22;14206;50.202;10.948;2022-07-23T06:08:43;22.90;72.70
26541;DHT22;14206;50.202;10.948;2022-07-23T06:11:10;22.90;72.80
26541;DHT22;14206;50.202;10.948;2022-07-23T06:13:37;23.10;72.30
26541;DHT22;14206;50.202;10.948;2022-07-23T06:16:04;23.30;72.40
26541;DHT22;14206;50.202;10.948;2022-07-23T06:18:32;23.70;71.70
26541;DHT22;14206;50.202;10.948;2022-07-23T06:20:58;24.20;69.60
26541;DHT22;14206;50.202;10.948;2022-07-23T06:23:26;24.60;68.70
26541;DHT22;14206;50.202;10.948;2022-07-23T06:25:53;25.00;67.60
26541;DHT22;14206;50.202;10.948;2022-07-23T06:28:20;25.30;66.40
26541;DHT22;14206;50.202;10.948;2022-07-23T06:30:47;25.50;65.50
26541;DHT22;14206;50.202;10.948;2022-07-23T06:33:15;25.70;65.60
26541;DHT22;14206;50.202;10.948;2022-07-23T06:35:43;25.90;64.60
26541;DHT22;14206;50.202;10.948;2022-07-23T06:38:10;26.00;64.10
26541;DHT22;14206;50.202;10.948;2022-07-23T06:40:37;26.00;63.90
26541;DHT22;14206;50.202;10.948;2022-07-23T06:43:04;26.00;63.60
26541;DHT22;14206;50.202;10.948;2022-07-23T06:45:35;26.10;64.30
26541;DHT22;14206;50.202;10.948;2022-07-23T06:48:03;26.30;64.30
26541;DHT22;14206;50.202;10.948;2022-07-23T06:50:29;26.70;62.80
26541;DHT22;14206;50.202;10.948;2022-07-23T06:52:56;26.90;61.50
26541;DHT22;14206;50.202;10.948;2022-07-23T06:55:23;26.80;61.80
26541;DHT22;14206;50.202;10.948;2022-07-23T06:57:50;26.90;62.90
26541;DHT22;14206;50.202;10.948;2022-07-23T07:00:17;27.20;61.70
26541;DHT22;14206;50.202;10.948;2022-07-23T07:02:43;28.00;60.60
26541;DHT22;14206;50.202;10.948;2022-07-23T07:05:11;29.50;58.00
26541;DHT22;14206;50.202;10.948;2022-07-23T07:07:37;30.50;55.30
26541;DHT22;14206;50.202;10.948;2022-07-23T07:10:04;31.70;53.00
26541;DHT22;14206;50.202;10.948;2022-07-23T07:12:31;31.90;52.00
26541;DHT22;14206;50.202;10.948;2022-07-23T07:14:58;31.90;50.80
26541;DHT22;14206;50.202;10.948;2022-07-23T07:17:26;31.80;51.20
26541;DHT22;14206;50.202;10.948;2022-07-23T07:19:53;31.50;52.00
26541;DHT22;14206;50.202;10.948;2022-07-23T07:22:20;30.90;52.80
26541;DHT22;14206;50.202;10.948;2022-07-23T07:24:46;30.30;54.70
26541;DHT22;14206;50.202;10.948;2022-07-23T07:27:13;30.00;57.40
26541;DHT22;14206;50.202;10.948;2022-07-23T07:29:40;29.70;56.00
26541;DHT22;14206;50.202;10.948;2022-07-23T07:32:07;29.40;56.50
26541;DHT22;14206;50.202;10.948;2022-07-23T07:34:34;29.00;59.10
26541;DHT22;14206;50.202;10.948;2022-07-23T07:37:01;28.70;58.40
26541;DHT22;14206;50.202;10.948;2022-07-23T07:39:28;28.40;59.10
26541;DHT22;14206;50.202;10.948;2022-07-23T07:41:55;28.00;60.00
26541;DHT22;14206;50.202;10.948;2022-07-23T07:44:22;27.70;62.50
26541;DHT22;14206;50.202;10.948;2022-07-23T07:46:49;27.60;62.70
26541;DHT22;14206;50.202;10.948;2022-07-23T07:49:16;27.40;63.20
26541;DHT22;14206;50.202;10.948;2022-07-23T07:51:47;27.10;63.00
26541;DHT22;14206;50.202;10.948;2022-07-23T07:54:14;27.10;64.40
26541;DHT22;14206;50.202;10.948;2022-07-23T07:56:42;26.90;64.40
26541;DHT22;14206;50.202;10.948;2022-07-23T07:59:09;26.80;65.20
26541;DHT22;14206;50.202;10.948;2022-07-23T08:01:36;26.60;65.80
26541;DHT22;14206;50.202;10.948;2022-07-23T08:04:03;26.30;66.30
26541;DHT22;14206;50.202;10.948;2022-07-23T08:06:31;26.00;67.10
26541;DHT22;14206;50.202;10.948;2022-07-23T08:08:59;25.80;68.90
26541;DHT22;14206;50.202;10.948;2022-07-23T08:11:25;25.70;70.20
26541;DHT22;14206;50.202;10.948;2022-07-23T08:13:52;25.70;70.50
26541;DHT22;14206;50.202;10.948;2022-07-23T08:16:19;25.60;70.80
26541;DHT22;14206;50.202;10.948;2022-07-23T08:18:47;25.40;71.30
26541;DHT22;14206;50.202;10.948;2022-07-23T08:21:13;25.20;74.90
26541;DHT22;14206;50.202;10.948;2022-07-23T08:23:40;25.10;75.60
26541;DHT22;14206;50.202;10.948;2022-07-23T08:26:07;24.80;76.60
26541;DHT22;14206;50.202;10.948;2022-07-23T08:28:34;24.60;78.10
26541;DHT22;14206;50.202;10.948;2022-07-23T08:31:01;24.50;79.00
26541;DHT22;14206;50.202;10.948;2022-07-23T08:33:28;24.30;79.90
26541;DHT22;14206;50.202;10.948;2022-07-23T08:36:00;24.30;80.40
26541;DHT22;14206;50.202;10.948;2022-07-23T08:38:30;24.30;81.00
26541;DHT22;14206;50.202;10.948;2022-07-23T08:40:57;24.40;81.50
26541;DHT22;14206;50.202;10.948;2022-07-23T08:43:25;24.60;79.60
26541;DHT22;14206;50.202;10.948;2022-07-23T08:45:53;24.90;78.10
26541;DHT22;14206;50.202;10.948;2022-07-23T08:48:23;25.20;77.00
26541;DHT22;14206;50.202;10.948;2022-07-23T08:50:51;25.50;76.30
26541;DHT22;14206;50.202;10.948;2022-07-23T08:53:18;25.80;76.40
26541;DHT22;14206;50.202;10.948;2022-07-23T08:55:46;26.10;73.90
26541;DHT22;14206;50.202;10.948;2022-07-23T08:58:13;26.30;74.60
26541;DHT22;14206;50.202;10.948;2022-07-23T09:00:41;26.70;73.00
26541;DHT22;14206;50.202;10.948;2022-07-23T09:03:11;27.10;72.40
26541;DHT22;14206;50.202;10.948;2022-07-23T09:05:41;27.50;72.30
26541;DHT22;14206;50.202;10.948;2022-07-23T09:10:45;28.60;69.90
26541;DHT22;14206;50.202;10.948;2022-07-23T09:16:16;29.90;66.10
26541;DHT22;14206;50.202;10.948;2022-07-23T09:19:03;30.60;61.30
26541;DHT22;14206;50.202;10.948;2022-07-23T09:21:31;31.20;59.40
26541;DHT22;14206;50.202;10.948;2022-07-23T09:26:27;32.70;56.20
26541;DHT22;14206;50.202;10.948;2022-07-23T09:29:15;32.80;53.50
26541;DHT22;14206;50.202;10.948;2022-07-23T09:31:47;33.40;53.40
26541;DHT22;14206;50.202;10.948;2022-07-23T09:36:45;35.50;50.20
26541;DHT22;14206;50.202;10.948;2022-07-23T09:39:12;36.60;48.80
26541;DHT22;14206;50.202;10.948;2022-07-23T09:41:41;37.60;46.30
26541;DHT22;14206;50.202;10.948;2022-07-23T09:44:09;38.20;45.30
26541;DHT22;14206;50.202;10.948;2022-07-23T09:46:36;39.00;44.10
26541;DHT22;14206;50.202;10.948;2022-07-23T09:49:10;39.00;43.20
26541;DHT22;14206;50.202;10.948;2022-07-23T09:51:44;38.90;43.30
26541;DHT22;14206;50.202;10.948;2022-07-23T09:54:58;38.90;42.10
26541;DHT22;14206;50.202;10.948;2022-07-23T09:57:04;39.20;42.70
26541;DHT22;14206;50.202;10.948;2022-07-23T09:59:33;39.30;41.50
26541;DHT22;14206;50.202;10.948;2022-07-23T10:02:01;39.30;41.70
26541;DHT22;14206;50.202;10.948;2022-07-23T10:04:33;39.00;40.70
26541;DHT22;14206;50.202;10.948;2022-07-23T10:07:15;38.90;41.80
26541;DHT22;14206;50.202;10.948;2022-07-23T10:10:07;38.50;42.70
26541;DHT22;14206;50.202;10.948;2022-07-23T10:12:54;37.70;43.40
26541;DHT22;14206;50.202;10.948;2022-07-23T10:15:33;37.20;44.70
26541;DHT22;14206;50.202;10.948;2022-07-23T10:17:59;36.40;44.80
26541;DHT22;14206;50.202;10.948;2022-07-23T10:20:26;36.60;46.50
26541;DHT22;14206;50.202;10.948;2022-07-23T10:23:01;36.90;45.40
26541;DHT22;14206;50.202;10.948;2022-07-23T10:28:03;36.60;45.40
26541;DHT22;14206;50.202;10.948;2022-07-23T10:38:33;36.20;46.00
26541;DHT22;14206;50.202;10.948;2022-07-23T10:41:04;37.30;47.70
26541;DHT22;14206;50.202;10.948;2022-07-23T10:43:31;38.70;43.10
26541;DHT22;14206;50.202;10.948;2022-07-23T10:48:45;40.10;41.10
26541;DHT22;14206;50.202;10.948;2022-07-23T10:51:13;39.80;39.90
26541;DHT22;14206;50.202;10.948;2022-07-23T10:59:05;40.60;38.90
26541;DHT22;14206;50.202;10.948;2022-07-23T11:01:38;40.50;39.40
26541;DHT22;14206;50.202;10.948;2022-07-23T11:04:05;40.30;40.30
26541;DHT22;14206;50.202;10.948;2022-07-23T11:09:24;39.80;40.40
26541;DHT22;14206;50.202;10.948;2022-07-23T11:12:34;40.30;39.60
26541;DHT22;14206;50.202;10.948;2022-07-23T11:17:21;38.80;40.40
26541;DHT22;14206;50.202;10.948;2022-07-23T11:22:34;37.10;43.20
26541;DHT22;14206;50.202;10.948;2022-07-23T11:25:01;36.10;44.70
26541;DHT22;14206;50.202;10.948;2022-07-23T11:27:38;35.70;45.00
26541;DHT22;14206;50.202;10.948;2022-07-23T11:30:07;35.30;46.00
26541;DHT22;14206;50.202;10.948;2022-07-23T11:32:37;35.50;45.90
26541;DHT22;14206;50.202;10.948;2022-07-23T11:35:22;35.70;44.80
26541;DHT22;14206;50.202;10.948;2022-07-23T11:38:02;35.60;46.40
26541;DHT22;14206;50.202;10.948;2022-07-23T11:40:35;35.30;45.90
26541;DHT22;14206;50.202;10.948;2022-07-23T11:43:03;35.10;45.70
26541;DHT22;14206;50.202;10.948;2022-07-23T11:45:40;34.80;46.80
26541;DHT22;14206;50.202;10.948;2022-07-23T11:48:08;34.40;47.00
26541;DHT22;14206;50.202;10.948;2022-07-23T11:50:36;33.90;47.40
26541;DHT22;14206;50.202;10.948;2022-07-23T11:53:03;33.70;48.00
26541;DHT22;14206;50.202;10.948;2022-07-23T11:55:30;33.80;49.30
26541;DHT22;14206;50.202;10.948;2022-07-23T11:57:57;34.30;47.10
26541;DHT22;14206;50.202;10.948;2022-07-23T12:00:28;35.50;45.50
26541;DHT22;14206;50.202;10.948;2022-07-23T12:02:56;36.50;43.20
26541;DHT22;14206;50.202;10.948;2022-07-23T12:05:27;36.20;44.80
26541;DHT22;14206;50.202;10.948;2022-07-23T12:07:55;36.80;43.90
26541;DHT22;14206;50.202;10.948;2022-07-23T12:10:23;36.60;43.00
26541;DHT22;14206;50.202;10.948;2022-07-23T12:12:54;36.20;44.30
26541;DHT22;14206;50.202;10.948;2022-07-23T12:15:29;35.80;45.30
26541;DHT22;14206;50.202;10.948;2022-07-23T12:17:59;35.60;44.40
26541;DHT22;14206;50.202;10.948;2022-07-23T12:20:34;35.80;45.30
26541;DHT22;14206;50.202;10.948;2022-07-23T12:23:02;36.90;43.50
26541;DHT22;14206;50.202;10.948;2022-07-23T12:25:30;38.20;42.00
26541;DHT22;14206;50.202;10.948;2022-07-23T12:27:59;39.00;40.40
26541;DHT22;14206;50.202;10.948;2022-07-23T12:30:48;38.30;40.70
26541;DHT22;14206;50.202;10.948;2022-07-23T12:33:26;37.10;42.40
26541;DHT22;14206;50.202;10.948;2022-07-23T12:35:54;36.00;43.60
26541;DHT22;14206;50.202;10.948;2022-07-23T12:38:23;35.20;45.00
26541;DHT22;14206;50.202;10.948;2022-07-23T12:40:51;34.60;46.20
26541;DHT22;14206;50.202;10.948;2022-07-23T12:43:26;33.50;49.50
26541;DHT22;14206;50.202;10.948;2022-07-23T12:45:57;32.50;52.70
26541;DHT22;14206;50.202;10.948;2022-07-23T12:48:31;32.60;53.10
26541;DHT22;14206;50.202;10.948;2022-07-23T12:51:02;32.80;53.40
26541;DHT22;14206;50.202;10.948;2022-07-23T12:56:01;32.50;55.00
26541;DHT22;14206;50.202;10.948;2022-07-23T13:01:09;32.30;53.50
26541;DHT22;14206;50.202;10.948;2022-07-23T13:03:39;32.50;53.40
26541;DHT22;14206;50.202;10.948;2022-07-23T13:06:07;32.80;52.60
26541;DHT22;14206;50.202;10.948;2022-07-23T13:08:36;32.90;51.60
26541;DHT22;14206;50.202;10.948;2022-07-23T13:11:03;33.20;52.40
26541;DHT22;14206;50.202;10.948;2022-07-23T13:13:32;33.60;50.90
26541;DHT22;14206;50.202;10.948;2022-07-23T13:15:59;33.70;50.90
26541;DHT22;14206;50.202;10.948;2022-07-23T13:18:28;33.50;51.90
26541;DHT22;14206;50.202;10.948;2022-07-23T13:20:55;33.40;51.40
26541;DHT22;14206;50.202;10.948;2022-07-23T13:23:24;33.30;53.00
26541;DHT22;14206;50.202;10.948;2022-07-23T13:25:51;33.30;52.50
26541;DHT22;14206;50.202;10.948;2022-07-23T13:28:18;33.00;52.20
26541;DHT22;14206;50.202;10.948;2022-07-23T13:30:46;32.70;51.80
26541;DHT22;14206;50.202;10.948;2022-07-23T13:33:19;32.50;52.60
26541;DHT22;14206;50.202;10.948;2022-07-23T13:35:46;32.40;53.50
26541;DHT22;14206;50.202;10.948;2022-07-23T13:38:14;32.10;53.20
26541;DHT22;14206;50.202;10.948;2022-07-23T13:40:44;32.00;53.00
26541;DHT22;14206;50.202;10.948;2022-07-23T13:43:12;31.80;54.40
26541;DHT22;14206;50.202;10.948;2022-07-23T13:45:41;31.60;52.80
26541;DHT22;14206;50.202;10.948;2022-07-23T13:48:08;31.60;55.00
26541;DHT22;14206;50.202;10.948;2022-07-23T13:50:36;31.50;53.10
26541;DHT22;14206;50.202;10.948;2022-07-23T13:53:04;31.20;54.00
26541;DHT22;14206;50.202;10.948;2022-07-23T13:55:32;31.10;54.50
26541;DHT22;14206;50.202;10.948;2022-07-23T13:57:59;31.10;54.50
26541;DHT22;14206;50.202;10.948;2022-07-23T14:00:26;31.00;53.00
26541;DHT22;14206;50.202;10.948;2022-07-23T14:03:15;31.20;53.80
26541;DHT22;14206;50.202;10.948;2022-07-23T14:05:42;31.50;52.60
26541;DHT22;14206;50.202;10.948;2022-07-23T14:08:10;31.60;51.80
26541;DHT22;14206;50.202;10.948;2022-07-23T14:10:40;31.80;50.40
26541;DHT22;14206;50.202;10.948;2022-07-23T14:13:09;31.80;51.30
26541;DHT22;14206;50.202;10.948;2022-07-23T14:15:36;31.80;50.50
26541;DHT22;14206;50.202;10.948;2022-07-23T14:18:05;31.90;50.30
26541;DHT22;14206;50.202;10.948;2022-07-23T14:20:32;32.00;49.70
26541;DHT22;14206;50.202;10.948;2022-07-23T14:22:59;31.70;49.20
26541;DHT22;14206;50.202;10.948;2022-07-23T14:25:31;31.60;50.50
26541;DHT22;14206;50.202;10.948;2022-07-23T14:28:00;31.50;49.60
26541;DHT22;14206;50.202;10.948;2022-07-23T14:30:27;31.40;48.90
26541;DHT22;14206;50.202;10.948;2022-07-23T14:33:00;31.50;49.90
26541;DHT22;14206;50.202;10.948;2022-07-23T14:35:27;31.40;49.50
26541;DHT22;14206;50.202;10.948;2022-07-23T14:37:54;31.30;49.00
26541;DHT22;14206;50.202;10.948;2022-07-23T14:40:21;31.10;49.20
26541;DHT22;14206;50.202;10.948;2022-07-23T14:42:49;31.00;49.10
26541;DHT22;14206;50.202;10.948;2022-07-23T14:45:16;31.00;48.60
26541;DHT22;14206;50.202;10.948;2022-07-23T14:47:45;31.10;48.90
26541;DHT22;14206;50.202;10.948;2022-07-23T14:50:13;31.10;47.60
26541;DHT22;14206;50.202;10.948;2022-07-23T14:52:40;31.10;47.80
26541;DHT22;14206;50.202;10.948;2022-07-23T14:55:07;31.00;47.10
26541;DHT22;14206;50.202;10.948;2022-07-23T14:57:34;31.00;48.50
26541;DHT22;14206;50.202;10.948;2022-07-23T15:00:01;30.90;48.00
26541;DHT22;14206;50.202;10.948;2022-07-23T15:02:28;30.90;47.90
26541;DHT22;14206;50.202;10.948;2022-07-23T15:04:55;30.90;48.10
26541;DHT22;14206;50.202;10.948;2022-07-23T15:07:24;30.90;48.10
26541;DHT22;14206;50.202;10.948;2022-07-23T15:09:52;30.90;47.50
26541;DHT22;14206;50.202;10.948;2022-07-23T15:12:20;30.80;48.00
26541;DHT22;14206;50.202;10.948;2022-07-23T15:14:47;30.80;48.00
26541;DHT22;14206;50.202;10.948;2022-07-23T15:17:14;30.50;47.70
26541;DHT22;14206;50.202;10.948;2022-07-23T15:19:41;30.40;48.90
26541;DHT22;14206;50.202;10.948;2022-07-23T15:22:08;30.20;48.60
26541;DHT22;14206;50.202;10.948;2022-07-23T15:24:35;30.10;48.30
26541;DHT22;14206;50.202;10.948;2022-07-23T15:27:02;30.00;49.50
26541;DHT22;14206;50.202;10.948;2022-07-23T15:29:30;29.80;49.50
26541;DHT22;14206;50.202;10.948;2022-07-23T15:31:57;29.60;48.80
26541;DHT22;14206;50.202;10.948;2022-07-23T15:34:25;29.40;49.20
26541;DHT22;14206;50.202;10.948;2022-07-23T15:36:52;29.40;50.70
26541;DHT22;14206;50.202;10.948;2022-07-23T15:39:19;29.50;48.60
26541;DHT22;14206;50.202;10.948;2022-07-23T15:41:46;29.70;48.90
26541;DHT22;14206;50.202;10.948;2022-07-23T15:44:14;29.80;49.50
26541;DHT22;14206;50.202;10.948;2022-07-23T15:46:58;29.80;49.50
26541;DHT22;14206;50.202;10.948;2022-07-23T15:49:26;29.80;48.90
26541;DHT22;14206;50.202;10.948;2022-07-23T15:51:54;29.80;49.80
26541;DHT22;14206;50.202;10.948;2022-07-23T15:54:21;29.70;50.00
26541;DHT22;14206;50.202;10.948;2022-07-23T15:56:48;29.60;49.80
26541;DHT22;14206;50.202;10.948;2022-07-23T15:59:16;29.40;50.20
26541;DHT22;14206;50.202;10.948;2022-07-23T16:01:43;29.30;50.20
26541;DHT22;14206;50.202;10.948;2022-07-23T16:04:10;29.00;50.00
26541;DHT22;14206;50.202;10.948;2022-07-23T16:06:38;28.90;51.60